sensor_id;sensor_type;location;lat;lon;timestamp;P1;durP1;ratioP1;P2;durP2;ratioP2
78781;SDS011;68126;55.748;48.742;2023-06-10T00:10:17;9.65;;;4.78;;
78781;SDS011;68126;55.748;48.742;2023-06-10T00:15:42;8.23;;;4.28;;
78781;SDS011;68126;55.748;48.742;2023-06-10T00:21:07;6.62;;;4.15;;
78781;SDS011;68126;55.748;48.742;2023-06-10T00:26:32;8.53;;;4.25;;
78781;SDS011;68126;55.748;48.742;2023-06-10T00:31:57;6.75;;;4.15;;
78781;SDS011;68126;55.748;48.742;2023-06-10T00:37:22;6.90;;;4.22;;
78781;SDS011;68126;55.748;48.742;2023-06-10T00:42:47;8.75;;;3.92;;
78781;SDS011;68126;55.748;48.742;2023-06-10T00:48:12;13.13;;;4.42;;
78781;SDS011;68126;55.748;48.742;2023-06-10T00:53:36;9.25;;;4.95;;
78781;SDS011;68126;55.748;48.742;2023-06-10T00:59:03;9.33;;;5.83;;
78781;SDS011;68126;55.748;48.742;2023-06-10T01:04:28;13.88;;;7.10;;
78781;SDS011;68126;55.748;48.742;2023-06-10T01:15:38;11.80;;;7.50;;
78781;SDS011;68126;55.748;48.742;2023-06-10T01:21:03;10.28;;;5.95;;
78781;SDS011;68126;55.748;48.742;2023-06-10T01:26:30;10.63;;;6.80;;
78781;SDS011;68126;55.748;48.742;2023-06-10T01:32:32;10.85;;;5.55;;
78781;SDS011;68126;55.748;48.742;2023-06-10T01:37:22;10.32;;;5.05;;
78781;SDS011;68126;55.748;48.742;2023-06-10T01:42:48;6.03;;;4.35;;
78781;SDS011;68126;55.748;48.742;2023-06-10T01:48:14;7.75;;;4.40;;
78781;SDS011;68126;55.748;48.742;2023-06-10T01:53:39;5.28;;;3.67;;
78781;SDS011;68126;55.748;48.742;2023-06-10T01:59:04;5.72;;;2.98;;
78781;SDS011;68126;55.748;48.742;2023-06-10T02:04:29;6.87;;;4.22;;
78781;SDS011;68126;55.748;48.742;2023-06-10T02:09:53;8.68;;;4.85;;
78781;SDS011;68126;55.748;48.742;2023-06-10T02:15:18;8.40;;;5.78;;
78781;SDS011;68126;55.748;48.742;2023-06-10T02:20:43;8.20;;;5.03;;
78781;SDS011;68126;55.748;48.742;2023-06-10T02:26:08;7.17;;;4.50;;
78781;SDS011;68126;55.748;48.742;2023-06-10T02:31:33;10.75;;;5.28;;
78781;SDS011;68126;55.748;48.742;2023-06-10T02:36:58;10.80;;;6.20;;
78781;SDS011;68126;55.748;48.742;2023-06-10T02:42:22;7.58;;;4.75;;
78781;SDS011;68126;55.748;48.742;2023-06-10T02:47:47;8.78;;;6.12;;
78781;SDS011;68126;55.748;48.742;2023-06-10T02:53:12;7.87;;;4.80;;
78781;SDS011;68126;55.748;48.742;2023-06-10T02:58:37;8.53;;;5.42;;
78781;SDS011;68126;55.748;48.742;2023-06-10T03:04:02;9.05;;;5.10;;
78781;SDS011;68126;55.748;48.742;2023-06-10T03:09:27;8.40;;;5.50;;
78781;SDS011;68126;55.748;48.742;2023-06-10T03:14:51;6.28;;;4.80;;
78781;SDS011;68126;55.748;48.742;2023-06-10T03:20:16;7.15;;;6.00;;
78781;SDS011;68126;55.748;48.742;2023-06-10T03:25:41;7.47;;;4.87;;
78781;SDS011;68126;55.748;48.742;2023-06-10T03:31:05;7.58;;;5.00;;
78781;SDS011;68126;55.748;48.742;2023-06-10T03:36:30;7.92;;;4.12;;
78781;SDS011;68126;55.748;48.742;2023-06-10T03:41:55;7.03;;;4.95;;
78781;SDS011;68126;55.748;48.742;2023-06-10T03:47:20;6.85;;;5.42;;
78781;SDS011;68126;55.748;48.742;2023-06-10T03:52:45;6.95;;;4.78;;
78781;SDS011;68126;55.748;48.742;2023-06-10T03:58:10;7.55;;;6.08;;
78781;SDS011;68126;55.748;48.742;2023-06-10T04:03:36;5.12;;;3.70;;
78781;SDS011;68126;55.748;48.742;2023-06-10T04:09:01;5.90;;;4.35;;
78781;SDS011;68126;55.748;48.742;2023-06-10T04:14:27;16.55;;;5.17;;
78781;SDS011;68126;55.748;48.742;2023-06-10T04:19:51;6.62;;;4.58;;
78781;SDS011;68126;55.748;48.742;2023-06-10T04:25:16;6.90;;;4.62;;
78781;SDS011;68126;55.748;48.742;2023-06-10T04:30:42;7.42;;;4.78;;
78781;SDS011;68126;55.748;48.742;2023-06-10T04:36:08;8.08;;;4.60;;
78781;SDS011;68126;55.748;48.742;2023-06-10T04:41:32;6.08;;;3.87;;
78781;SDS011;68126;55.748;48.742;2023-06-10T04:46:57;7.67;;;4.47;;
78781;SDS011;68126;55.748;48.742;2023-06-10T04:52:22;8.58;;;5.17;;
78781;SDS011;68126;55.748;48.742;2023-06-10T04:57:47;9.03;;;4.75;;
78781;SDS011;68126;55.748;48.742;2023-06-10T05:03:12;8.58;;;5.42;;
78781;SDS011;68126;55.748;48.742;2023-06-10T05:08:37;8.83;;;6.30;;
78781;SDS011;68126;55.748;48.742;2023-06-10T05:14:02;7.95;;;4.65;;
78781;SDS011;68126;55.748;48.742;2023-06-10T05:19:27;6.70;;;4.12;;
78781;SDS011;68126;55.748;48.742;2023-06-10T05:24:52;9.03;;;4.20;;
78781;SDS011;68126;55.748;48.742;2023-06-10T05:30:17;10.40;;;4.53;;
78781;SDS011;68126;55.748;48.742;2023-06-10T05:35:42;8.68;;;3.87;;
78781;SDS011;68126;55.748;48.742;2023-06-10T05:41:06;7.33;;;4.35;;
78781;SDS011;68126;55.748;48.742;2023-06-10T05:46:31;5.58;;;3.72;;
78781;SDS011;68126;55.748;48.742;2023-06-10T05:51:56;6.50;;;4.22;;
78781;SDS011;68126;55.748;48.742;2023-06-10T05:57:21;7.72;;;4.10;;
78781;SDS011;68126;55.748;48.742;2023-06-10T06:02:46;7.08;;;4.05;;
78781;SDS011;68126;55.748;48.742;2023-06-10T06:08:12;8.98;;;5.58;;
78781;SDS011;68126;55.748;48.742;2023-06-10T06:14:12;7.75;;;4.60;;
78781;SDS011;68126;55.748;48.742;2023-06-10T06:19:05;7.62;;;3.42;;
78781;SDS011;68126;55.748;48.742;2023-06-10T06:30:16;7.25;;;3.30;;
78781;SDS011;68126;55.748;48.742;2023-06-10T06:35:41;5.85;;;2.92;;
78781;SDS011;68126;55.748;48.742;2023-06-10T06:41:06;7.80;;;2.92;;
78781;SDS011;68126;55.748;48.742;2023-06-10T06:46:31;6.55;;;2.98;;
78781;SDS011;68126;55.748;48.742;2023-06-10T06:51:55;5.05;;;2.40;;
78781;SDS011;68126;55.748;48.742;2023-06-10T06:57:20;3.90;;;2.10;;
78781;SDS011;68126;55.748;48.742;2023-06-10T07:02:45;3.47;;;2.27;;
78781;SDS011;68126;55.748;48.742;2023-06-10T07:08:10;5.65;;;2.62;;
78781;SDS011;68126;55.748;48.742;2023-06-10T07:13:35;3.45;;;2.83;;
78781;SDS011;68126;55.748;48.742;2023-06-10T07:18:59;3.77;;;2.62;;
78781;SDS011;68126;55.748;48.742;2023-06-10T07:24:24;5.37;;;3.25;;
78781;SDS011;68126;55.748;48.742;2023-06-10T07:29:50;5.60;;;4.78;;
78781;SDS011;68126;55.748;48.742;2023-06-10T07:35:14;5.37;;;3.70;;
78781;SDS011;68126;55.748;48.742;2023-06-10T07:40:39;4.55;;;2.75;;
78781;SDS011;68126;55.748;48.742;2023-06-10T07:46:04;5.78;;;3.67;;
78781;SDS011;68126;55.748;48.742;2023-06-10T07:51:29;4.72;;;2.20;;
78781;SDS011;68126;55.748;48.742;2023-06-10T07:56:54;2.92;;;1.98;;
78781;SDS011;68126;55.748;48.742;2023-06-10T08:02:18;3.20;;;2.20;;
78781;SDS011;68126;55.748;48.742;2023-06-10T08:07:44;3.58;;;2.30;;
78781;SDS011;68126;55.748;48.742;2023-06-10T08:13:08;3.33;;;1.77;;
78781;SDS011;68126;55.748;48.742;2023-06-10T08:18:33;4.55;;;2.42;;
78781;SDS011;68126;55.748;48.742;2023-06-10T08:23:58;5.45;;;2.17;;
78781;SDS011;68126;55.748;48.742;2023-06-10T08:29:23;4.67;;;2.35;;
78781;SDS011;68126;55.748;48.742;2023-06-10T08:40:14;4.67;;;1.62;;
78781;SDS011;68126;55.748;48.742;2023-06-10T08:45:39;2.77;;;1.90;;
78781;SDS011;68126;55.748;48.742;2023-06-10T08:51:05;4.47;;;1.92;;
78781;SDS011;68126;55.748;48.742;2023-06-10T08:56:30;5.17;;;2.00;;
78781;SDS011;68126;55.748;48.742;2023-06-10T09:01:55;3.98;;;2.00;;
78781;SDS011;68126;55.748;48.742;2023-06-10T09:07:20;3.33;;;1.62;;
78781;SDS011;68126;55.748;48.742;2023-06-10T09:23:36;2.58;;;1.17;;
78781;SDS011;68126;55.748;48.742;2023-06-10T09:34:46;2.83;;;2.02;;
78781;SDS011;68126;55.748;48.742;2023-06-10T09:40:13;2.35;;;1.32;;
78781;SDS011;68126;55.748;48.742;2023-06-10T09:45:37;2.67;;;1.12;;
78781;SDS011;68126;55.748;48.742;2023-06-10T09:51:02;2.62;;;1.30;;
78781;SDS011;68126;55.748;48.742;2023-06-10T10:02:15;3.47;;;1.25;;
78781;SDS011;68126;55.748;48.742;2023-06-10T10:07:43;6.05;;;1.00;;
78781;SDS011;68126;55.748;48.742;2023-06-10T10:13:08;2.60;;;0.80;;
78781;SDS011;68126;55.748;48.742;2023-06-10T10:18:32;3.50;;;1.05;;
78781;SDS011;68126;55.748;48.742;2023-06-10T10:29:44;3.20;;;0.82;;
78781;SDS011;68126;55.748;48.742;2023-06-10T10:35:12;3.85;;;1.20;;
78781;SDS011;68126;55.748;48.742;2023-06-10T10:40:35;0.88;;;0.40;;
78781;SDS011;68126;55.748;48.742;2023-06-10T10:46:00;2.47;;;0.95;;
78781;SDS011;68126;55.748;48.742;2023-06-10T10:51:25;4.12;;;0.65;;
78781;SDS011;68126;55.748;48.742;2023-06-10T11:02:36;3.37;;;0.60;;
78781;SDS011;68126;55.748;48.742;2023-06-10T11:08:00;1.75;;;1.55;;
78781;SDS011;68126;55.748;48.742;2023-06-10T11:13:26;2.08;;;0.50;;
78781;SDS011;68126;55.748;48.742;2023-06-10T11:18:53;1.45;;;0.68;;
78781;SDS011;68126;55.748;48.742;2023-06-10T11:24:17;2.40;;;0.75;;
78781;SDS011;68126;55.748;48.742;2023-06-10T11:35:28;3.50;;;0.95;;
78781;SDS011;68126;55.748;48.742;2023-06-10T11:40:53;2.20;;;0.70;;
78781;SDS011;68126;55.748;48.742;2023-06-10T11:46:18;5.67;;;0.75;;
78781;SDS011;68126;55.748;48.742;2023-06-10T11:51:43;2.62;;;0.50;;
78781;SDS011;68126;55.748;48.742;2023-06-10T11:57:09;2.30;;;0.60;;
78781;SDS011;68126;55.748;48.742;2023-06-10T12:02:34;2.83;;;0.75;;
78781;SDS011;68126;55.748;48.742;2023-06-10T12:19:28;1.80;;;0.50;;
78781;SDS011;68126;55.748;48.742;2023-06-10T12:30:38;2.10;;;0.45;;
78781;SDS011;68126;55.748;48.742;2023-06-10T12:36:02;3.52;;;0.60;;
78781;SDS011;68126;55.748;48.742;2023-06-10T12:41:28;1.52;;;0.53;;
78781;SDS011;68126;55.748;48.742;2023-06-10T12:46:54;1.12;;;0.33;;
78781;SDS011;68126;55.748;48.742;2023-06-10T12:52:19;5.40;;;0.40;;
78781;SDS011;68126;55.748;48.742;2023-06-10T13:03:28;1.72;;;0.45;;
78781;SDS011;68126;55.748;48.742;2023-06-10T13:08:53;2.70;;;0.57;;
78781;SDS011;68126;55.748;48.742;2023-06-10T13:14:18;3.40;;;0.42;;
78781;SDS011;68126;55.748;48.742;2023-06-10T13:19:42;1.20;;;0.30;;
78781;SDS011;68126;55.748;48.742;2023-06-10T13:25:07;1.62;;;0.23;;
78781;SDS011;68126;55.748;48.742;2023-06-10T13:30:32;2.33;;;0.50;;
78781;SDS011;68126;55.748;48.742;2023-06-10T13:35:57;3.75;;;0.70;;
78781;SDS011;68126;55.748;48.742;2023-06-10T13:41:22;4.17;;;0.78;;
78781;SDS011;68126;55.748;48.742;2023-06-10T13:52:11;1.45;;;0.42;;
78781;SDS011;68126;55.748;48.742;2023-06-10T13:57:35;1.32;;;0.60;;
78781;SDS011;68126;55.748;48.742;2023-06-10T14:03:00;2.52;;;0.80;;
78781;SDS011;68126;55.748;48.742;2023-06-10T14:13:49;1.65;;;0.90;;
78781;SDS011;68126;55.748;48.742;2023-06-10T14:24:38;1.85;;;0.50;;
78781;SDS011;68126;55.748;48.742;2023-06-10T14:30:02;6.50;;;0.72;;
78781;SDS011;68126;55.748;48.742;2023-06-10T14:35:29;4.47;;;0.85;;
78781;SDS011;68126;55.748;48.742;2023-06-10T14:40:53;5.83;;;0.45;;
78781;SDS011;68126;55.748;48.742;2023-06-10T14:46:18;0.82;;;0.33;;
78781;SDS011;68126;55.748;48.742;2023-06-10T14:51:43;1.72;;;0.45;;
78781;SDS011;68126;55.748;48.742;2023-06-10T14:57:09;1.10;;;0.35;;
78781;SDS011;68126;55.748;48.742;2023-06-10T15:08:05;3.35;;;0.47;;
78781;SDS011;68126;55.748;48.742;2023-06-10T15:13:30;1.82;;;0.33;;
78781;SDS011;68126;55.748;48.742;2023-06-10T15:18:55;2.25;;;1.00;;
78781;SDS011;68126;55.748;48.742;2023-06-10T15:24:21;1.57;;;1.05;;
78781;SDS011;68126;55.748;48.742;2023-06-10T15:29:46;1.47;;;0.37;;
78781;SDS011;68126;55.748;48.742;2023-06-10T15:35:11;1.77;;;0.78;;
78781;SDS011;68126;55.748;48.742;2023-06-10T15:40:38;2.05;;;0.30;;
78781;SDS011;68126;55.748;48.742;2023-06-10T15:46:04;4.40;;;0.60;;
78781;SDS011;68126;55.748;48.742;2023-06-10T15:51:29;3.45;;;0.78;;
78781;SDS011;68126;55.748;48.742;2023-06-10T15:56:55;1.92;;;0.85;;
78781;SDS011;68126;55.748;48.742;2023-06-10T16:02:20;6.97;;;1.62;;
78781;SDS011;68126;55.748;48.742;2023-06-10T16:07:45;2.45;;;0.90;;
78781;SDS011;68126;55.748;48.742;2023-06-10T16:13:11;2.30;;;1.00;;
78781;SDS011;68126;55.748;48.742;2023-06-10T16:18:38;2.77;;;0.80;;
78781;SDS011;68126;55.748;48.742;2023-06-10T16:24:03;4.58;;;0.68;;
78781;SDS011;68126;55.748;48.742;2023-06-10T16:34:57;3.55;;;1.05;;
78781;SDS011;68126;55.748;48.742;2023-06-10T16:40:22;2.05;;;1.22;;
78781;SDS011;68126;55.748;48.742;2023-06-10T16:45:47;0.90;;;0.60;;
78781;SDS011;68126;55.748;48.742;2023-06-10T16:51:14;5.20;;;1.00;;
78781;SDS011;68126;55.748;48.742;2023-06-10T16:56:39;2.47;;;1.57;;
78781;SDS011;68126;55.748;48.742;2023-06-10T17:02:04;3.42;;;1.22;;
78781;SDS011;68126;55.748;48.742;2023-06-10T17:07:28;2.60;;;1.15;;
78781;SDS011;68126;55.748;48.742;2023-06-10T17:12:54;6.03;;;2.08;;
78781;SDS011;68126;55.748;48.742;2023-06-10T17:18:19;4.28;;;1.50;;
78781;SDS011;68126;55.748;48.742;2023-06-10T17:23:44;3.10;;;1.65;;
78781;SDS011;68126;55.748;48.742;2023-06-10T17:29:08;2.90;;;1.35;;
78781;SDS011;68126;55.748;48.742;2023-06-10T17:40:00;2.87;;;1.47;;
78781;SDS011;68126;55.748;48.742;2023-06-10T17:45:27;2.58;;;1.10;;
78781;SDS011;68126;55.748;48.742;2023-06-10T17:50:51;2.55;;;1.00;;
78781;SDS011;68126;55.748;48.742;2023-06-10T17:56:16;2.25;;;1.20;;
78781;SDS011;68126;55.748;48.742;2023-06-10T18:01:41;3.72;;;2.05;;
78781;SDS011;68126;55.748;48.742;2023-06-10T18:12:32;2.60;;;1.52;;
78781;SDS011;68126;55.748;48.742;2023-06-10T18:17:57;2.85;;;1.87;;
78781;SDS011;68126;55.748;48.742;2023-06-10T18:23:22;4.50;;;1.98;;
78781;SDS011;68126;55.748;48.742;2023-06-10T18:28:46;8.83;;;1.82;;
78781;SDS011;68126;55.748;48.742;2023-06-10T18:34:11;3.12;;;1.72;;
78781;SDS011;68126;55.748;48.742;2023-06-10T18:39:40;3.55;;;1.65;;
78781;SDS011;68126;55.748;48.742;2023-06-10T18:45:05;4.72;;;1.98;;
78781;SDS011;68126;55.748;48.742;2023-06-10T18:50:30;2.77;;;1.37;;
78781;SDS011;68126;55.748;48.742;2023-06-10T18:55:55;5.47;;;2.08;;
78781;SDS011;68126;55.748;48.742;2023-06-10T19:01:21;4.28;;;1.85;;
78781;SDS011;68126;55.748;48.742;2023-06-10T19:06:47;3.42;;;1.77;;
78781;SDS011;68126;55.748;48.742;2023-06-10T19:12:14;6.85;;;2.42;;
78781;SDS011;68126;55.748;48.742;2023-06-10T19:17:39;3.25;;;1.90;;
78781;SDS011;68126;55.748;48.742;2023-06-10T19:23:05;4.90;;;1.82;;
78781;SDS011;68126;55.748;48.742;2023-06-10T19:28:30;6.85;;;2.22;;
78781;SDS011;68126;55.748;48.742;2023-06-10T19:33:55;4.80;;;2.15;;
78781;SDS011;68126;55.748;48.742;2023-06-10T19:39:19;5.03;;;2.25;;
78781;SDS011;68126;55.748;48.742;2023-06-10T19:44:44;5.15;;;1.90;;
78781;SDS011;68126;55.748;48.742;2023-06-10T19:50:09;3.47;;;2.15;;
78781;SDS011;68126;55.748;48.742;2023-06-10T19:55:34;5.05;;;2.47;;
78781;SDS011;68126;55.748;48.742;2023-06-10T20:00:59;5.55;;;1.92;;
78781;SDS011;68126;55.748;48.742;2023-06-10T20:06:24;2.17;;;1.42;;
78781;SDS011;68126;55.748;48.742;2023-06-10T20:11:49;4.10;;;1.87;;
78781;SDS011;68126;55.748;48.742;2023-06-10T20:17:13;3.40;;;1.90;;
78781;SDS011;68126;55.748;48.742;2023-06-10T20:22:38;4.03;;;1.80;;
78781;SDS011;68126;55.748;48.742;2023-06-10T20:28:03;3.75;;;2.12;;
78781;SDS011;68126;55.748;48.742;2023-06-10T20:33:28;3.17;;;1.65;;
78781;SDS011;68126;55.748;48.742;2023-06-10T20:38:52;5.28;;;1.87;;
78781;SDS011;68126;55.748;48.742;2023-06-10T20:44:17;3.50;;;2.17;;
78781;SDS011;68126;55.748;48.742;2023-06-10T20:49:42;3.87;;;1.52;;
78781;SDS011;68126;55.748;48.742;2023-06-10T20:55:07;2.02;;;1.62;;
78781;SDS011;68126;55.748;48.742;2023-06-10T21:00:32;7.80;;;6.85;;
78781;SDS011;68126;55.748;48.742;2023-06-10T21:05:57;4.47;;;1.37;;
78781;SDS011;68126;55.748;48.742;2023-06-10T21:11:22;5.30;;;1.75;;
78781;SDS011;68126;55.748;48.742;2023-06-10T21:16:47;12.05;;;1.98;;
78781;SDS011;68126;55.748;48.742;2023-06-10T21:22:12;4.17;;;1.37;;
78781;SDS011;68126;55.748;48.742;2023-06-10T21:27:37;3.42;;;1.30;;
78781;SDS011;68126;55.748;48.742;2023-06-10T21:33:02;2.22;;;1.07;;
78781;SDS011;68126;55.748;48.742;2023-06-10T21:38:27;1.65;;;0.78;;
78781;SDS011;68126;55.748;48.742;2023-06-10T21:44:11;4.30;;;1.95;;
78781;SDS011;68126;55.748;48.742;2023-06-10T21:49:38;2.90;;;1.40;;
78781;SDS011;68126;55.748;48.742;2023-06-10T21:55:05;2.08;;;1.52;;
78781;SDS011;68126;55.748;48.742;2023-06-10T22:00:30;2.15;;;1.22;;
78781;SDS011;68126;55.748;48.742;2023-06-10T22:05:56;1.98;;;1.25;;
78781;SDS011;68126;55.748;48.742;2023-06-10T22:11:24;3.08;;;1.42;;
78781;SDS011;68126;55.748;48.742;2023-06-10T22:22:33;2.08;;;0.88;;
78781;SDS011;68126;55.748;48.742;2023-06-10T22:27:58;2.30;;;0.95;;
78781;SDS011;68126;55.748;48.742;2023-06-10T22:33:23;1.95;;;1.15;;
78781;SDS011;68126;55.748;48.742;2023-06-10T22:39:08;2.37;;;1.10;;
78781;SDS011;68126;55.748;48.742;2023-06-10T22:44:34;1.25;;;0.95;;
78781;SDS011;68126;55.748;48.742;2023-06-10T22:50:01;1.42;;;0.70;;
78781;SDS011;68126;55.748;48.742;2023-06-10T22:55:26;1.37;;;0.95;;
78781;SDS011;68126;55.748;48.742;2023-06-10T23:01:31;3.62;;;1.52;;
78781;SDS011;68126;55.748;48.742;2023-06-10T23:06:57;3.35;;;1.07;;
78781;SDS011;68126;55.748;48.742;2023-06-10T23:12:22;3.50;;;1.22;;
78781;SDS011;68126;55.748;48.742;2023-06-10T23:17:47;2.20;;;1.95;;
78781;SDS011;68126;55.748;48.742;2023-06-10T23:23:12;3.62;;;1.05;;
78781;SDS011;68126;55.748;48.742;2023-06-10T23:34:03;1.77;;;0.70;;
78781;SDS011;68126;55.748;48.742;2023-06-10T23:39:27;3.05;;;1.87;;
78781;SDS011;68126;55.748;48.742;2023-06-10T23:45:12;1.47;;;1.27;;
78781;SDS011;68126;55.748;48.742;2023-06-10T23:50:39;2.30;;;1.02;;
78781;SDS011;68126;55.748;48.742;2023-06-10T23:56:05;2.08;;;1.65;;
